sensor_id;sensor_type;location;lat;lon;timestamp;temperature;humidity
21672;DHT22;10997;52.242;8.168;2023-09-19T00:04:36;15.80;99.90
21672;DHT22;10997;52.242;8.168;2023-09-19T00:09:40;15.80;99.90
21672;DHT22;10997;52.242;8.168;2023-09-19T00:14:40;15.90;99.90
21672;DHT22;10997;52.242;8.168;2023-09-19T00:19:41;15.90;99.90
21672;DHT22;10997;52.242;8.168;2023-09-19T00:24:43;15.90;99.90
21672;DHT22;10997;52.242;8.168;2023-09-19T00:29:43;16.00;99.90
21672;DHT22;10997;52.242;8.168;2023-09-19T00:34:44;16.00;99.90
21672;DHT22;10997;52.242;8.168;2023-09-19T00:39:44;15.90;99.90
21672;DHT22;10997;52.242;8.168;2023-09-19T00:44:47;15.90;99.90
21672;DHT22;10997;52.242;8.168;2023-09-19T00:49:48;15.90;99.90
21672;DHT22;10997;52.242;8.168;2023-09-19T00:54:53;15.80;99.90
21672;DHT22;10997;52.242;8.168;2023-09-19T00:59:55;15.80;99.90
21672;DHT22;10997;52.242;8.168;2023-09-19T01:04:56;15.70;99.90
21672;DHT22;10997;52.242;8.168;2023-09-19T01:09:58;15.70;99.90
21672;DHT22;10997;52.242;8.168;2023-09-19T01:15:28;15.70;99.90
21672;DHT22;10997;52.242;8.168;2023-09-19T01:21:43;15.70;99.90
21672;DHT22;10997;52.242;8.168;2023-09-19T01:31:59;15.60;99.90
21672;DHT22;10997;52.242;8.168;2023-09-19T01:37:02;15.50;99.90
21672;DHT22;10997;52.242;8.168;2023-09-19T01:42:12;15.40;99.90
21672;DHT22;10997;52.242;8.168;2023-09-19T01:47:26;15.40;99.90
21672;DHT22;10997;52.242;8.168;2023-09-19T01:52:30;15.30;99.90
21672;DHT22;10997;52.242;8.168;2023-09-19T01:57:41;15.20;99.90
21672;DHT22;10997;52.242;8.168;2023-09-19T02:02:47;15.20;99.90
21672;DHT22;10997;52.242;8.168;2023-09-19T02:07:48;15.20;99.90
21672;DHT22;10997;52.242;8.168;2023-09-19T02:12:50;15.20;99.90
21672;DHT22;10997;52.242;8.168;2023-09-19T02:17:50;15.20;99.90
21672;DHT22;10997;52.242;8.168;2023-09-19T02:22:51;15.10;99.90
21672;DHT22;10997;52.242;8.168;2023-09-19T02:27:52;15.10;99.90
21672;DHT22;10997;52.242;8.168;2023-09-19T02:32:54;15.00;99.90
21672;DHT22;10997;52.242;8.168;2023-09-19T02:37:55;15.00;99.90
21672;DHT22;10997;52.242;8.168;2023-09-19T02:42:55;15.00;99.90
21672;DHT22;10997;52.242;8.168;2023-09-19T02:47:56;14.80;99.90
21672;DHT22;10997;52.242;8.168;2023-09-19T02:52:57;14.70;99.90
21672;DHT22;10997;52.242;8.168;2023-09-19T02:57:58;14.70;99.90
21672;DHT22;10997;52.242;8.168;2023-09-19T03:02:59;14.60;99.90
21672;DHT22;10997;52.242;8.168;2023-09-19T03:08:00;14.50;99.90
21672;DHT22;10997;52.242;8.168;2023-09-19T03:13:03;14.40;99.90
21672;DHT22;10997;52.242;8.168;2023-09-19T03:18:04;14.30;99.90
21672;DHT22;10997;52.242;8.168;2023-09-19T03:23:05;14.40;99.90
21672;DHT22;10997;52.242;8.168;2023-09-19T03:28:06;14.30;99.90
21672;DHT22;10997;52.242;8.168;2023-09-19T03:33:07;14.20;99.90
21672;DHT22;10997;52.242;8.168;2023-09-19T03:38:08;14.20;99.90
21672;DHT22;10997;52.242;8.168;2023-09-19T03:43:09;14.20;99.90
21672;DHT22;10997;52.242;8.168;2023-09-19T03:48:10;14.20;99.90
21672;DHT22;10997;52.242;8.168;2023-09-19T03:53:10;14.10;99.90
21672;DHT22;10997;52.242;8.168;2023-09-19T03:58:11;14.20;99.90
21672;DHT22;10997;52.242;8.168;2023-09-19T04:03:12;14.20;99.90
21672;DHT22;10997;52.242;8.168;2023-09-19T04:08:19;14.20;99.90
21672;DHT22;10997;52.242;8.168;2023-09-19T04:13:20;14.20;99.90
21672;DHT22;10997;52.242;8.168;2023-09-19T04:18:20;14.10;99.90
21672;DHT22;10997;52.242;8.168;2023-09-19T04:23:24;14.10;99.90
21672;DHT22;10997;52.242;8.168;2023-09-19T04:28:25;14.10;99.90
21672;DHT22;10997;52.242;8.168;2023-09-19T04:33:28;14.00;99.90
21672;DHT22;10997;52.242;8.168;2023-09-19T04:38:28;14.00;99.90
21672;DHT22;10997;52.242;8.168;2023-09-19T04:43:29;14.00;99.90
21672;DHT22;10997;52.242;8.168;2023-09-19T04:48:30;14.00;99.90
21672;DHT22;10997;52.242;8.168;2023-09-19T04:53:32;14.00;99.90
21672;DHT22;10997;52.242;8.168;2023-09-19T04:58:32;13.90;99.90
21672;DHT22;10997;52.242;8.168;2023-09-19T05:03:33;13.90;99.90
21672;DHT22;10997;52.242;8.168;2023-09-19T05:08:33;13.70;99.90
21672;DHT22;10997;52.242;8.168;2023-09-19T05:13:34;13.70;99.90
21672;DHT22;10997;52.242;8.168;2023-09-19T05:18:35;13.60;99.90
21672;DHT22;10997;52.242;8.168;2023-09-19T05:23:36;13.50;99.90
21672;DHT22;10997;52.242;8.168;2023-09-19T05:28:37;13.50;99.90
21672;DHT22;10997;52.242;8.168;2023-09-19T05:33:38;13.40;99.90
21672;DHT22;10997;52.242;8.168;2023-09-19T05:38:38;13.30;99.90
21672;DHT22;10997;52.242;8.168;2023-09-19T05:43:41;13.40;99.90
21672;DHT22;10997;52.242;8.168;2023-09-19T05:48:42;13.30;99.90
21672;DHT22;10997;52.242;8.168;2023-09-19T05:53:44;13.40;99.90
21672;DHT22;10997;52.242;8.168;2023-09-19T05:58:45;13.30;99.90
21672;DHT22;10997;52.242;8.168;2023-09-19T06:03:45;13.40;99.90
21672;DHT22;10997;52.242;8.168;2023-09-19T06:08:46;13.40;99.90
21672;DHT22;10997;52.242;8.168;2023-09-19T06:13:47;13.50;99.90
21672;DHT22;10997;52.242;8.168;2023-09-19T06:18:51;13.60;99.90
21672;DHT22;10997;52.242;8.168;2023-09-19T06:23:53;13.60;99.90
21672;DHT22;10997;52.242;8.168;2023-09-19T06:28:54;13.70;99.90
21672;DHT22;10997;52.242;8.168;2023-09-19T06:33:56;13.80;99.90
21672;DHT22;10997;52.242;8.168;2023-09-19T06:38:56;14.00;99.90
21672;DHT22;10997;52.242;8.168;2023-09-19T06:43:57;14.10;99.90
21672;DHT22;10997;52.242;8.168;2023-09-19T06:48:58;14.30;99.90
21672;DHT22;10997;52.242;8.168;2023-09-19T06:53:58;14.50;99.90
21672;DHT22;10997;52.242;8.168;2023-09-19T06:58:59;14.50;99.90
21672;DHT22;10997;52.242;8.168;2023-09-19T07:03:59;14.50;99.90
21672;DHT22;10997;52.242;8.168;2023-09-19T07:09:00;14.50;99.90
21672;DHT22;10997;52.242;8.168;2023-09-19T07:14:01;14.50;99.90
21672;DHT22;10997;52.242;8.168;2023-09-19T07:19:03;14.50;99.90
21672;DHT22;10997;52.242;8.168;2023-09-19T07:24:04;14.50;99.90
21672;DHT22;10997;52.242;8.168;2023-09-19T07:29:05;14.60;99.90
21672;DHT22;10997;52.242;8.168;2023-09-19T07:34:07;14.70;99.90
21672;DHT22;10997;52.242;8.168;2023-09-19T07:39:08;14.90;99.90
21672;DHT22;10997;52.242;8.168;2023-09-19T07:44:09;15.20;99.90
21672;DHT22;10997;52.242;8.168;2023-09-19T07:49:12;15.40;99.90
21672;DHT22;10997;52.242;8.168;2023-09-19T07:54:13;15.50;99.90
21672;DHT22;10997;52.242;8.168;2023-09-19T07:59:15;15.50;99.90
21672;DHT22;10997;52.242;8.168;2023-09-19T08:04:16;15.70;99.90
21672;DHT22;10997;52.242;8.168;2023-09-19T08:09:17;15.90;99.90
21672;DHT22;10997;52.242;8.168;2023-09-19T08:14:21;16.00;99.90
21672;DHT22;10997;52.242;8.168;2023-09-19T08:19:23;15.80;99.90
21672;DHT22;10997;52.242;8.168;2023-09-19T08:24:29;15.80;99.90
21672;DHT22;10997;52.242;8.168;2023-09-19T08:29:29;15.90;99.90
21672;DHT22;10997;52.242;8.168;2023-09-19T08:34:30;15.90;99.90
21672;DHT22;10997;52.242;8.168;2023-09-19T08:39:34;16.00;99.90
21672;DHT22;10997;52.242;8.168;2023-09-19T08:44:37;16.10;99.90
21672;DHT22;10997;52.242;8.168;2023-09-19T08:50:10;16.20;99.90
21672;DHT22;10997;52.242;8.168;2023-09-19T08:55:14;16.30;99.90
21672;DHT22;10997;52.242;8.168;2023-09-19T09:00:22;16.40;99.90
21672;DHT22;10997;52.242;8.168;2023-09-19T09:05:23;16.60;99.90
21672;DHT22;10997;52.242;8.168;2023-09-19T09:10:25;16.70;99.90
21672;DHT22;10997;52.242;8.168;2023-09-19T09:15:26;16.80;99.90
21672;DHT22;10997;52.242;8.168;2023-09-19T09:20:30;16.90;99.90
21672;DHT22;10997;52.242;8.168;2023-09-19T09:25:49;16.80;99.90
21672;DHT22;10997;52.242;8.168;2023-09-19T09:30:51;16.90;99.90
21672;DHT22;10997;52.242;8.168;2023-09-19T09:35:57;17.00;99.90
21672;DHT22;10997;52.242;8.168;2023-09-19T09:40:59;17.40;99.90
21672;DHT22;10997;52.242;8.168;2023-09-19T09:46:17;17.50;99.90
21672;DHT22;10997;52.242;8.168;2023-09-19T09:51:30;17.70;99.90
21672;DHT22;10997;52.242;8.168;2023-09-19T09:56:31;17.80;99.90
21672;DHT22;10997;52.242;8.168;2023-09-19T10:01:47;17.80;99.90
21672;DHT22;10997;52.242;8.168;2023-09-19T10:06:53;18.00;99.90
21672;DHT22;10997;52.242;8.168;2023-09-19T10:12:06;18.00;99.90
21672;DHT22;10997;52.242;8.168;2023-09-19T10:17:10;18.30;99.90
21672;DHT22;10997;52.242;8.168;2023-09-19T10:22:14;18.20;99.90
21672;DHT22;10997;52.242;8.168;2023-09-19T10:27:21;18.20;99.90
21672;DHT22;10997;52.242;8.168;2023-09-19T10:32:23;18.00;99.90
21672;DHT22;10997;52.242;8.168;2023-09-19T10:37:26;18.00;99.90
21672;DHT22;10997;52.242;8.168;2023-09-19T10:42:28;18.10;99.90
21672;DHT22;10997;52.242;8.168;2023-09-19T10:47:30;18.20;99.90
21672;DHT22;10997;52.242;8.168;2023-09-19T10:52:31;18.20;99.90
21672;DHT22;10997;52.242;8.168;2023-09-19T10:57:35;18.40;99.90
21672;DHT22;10997;52.242;8.168;2023-09-19T11:02:37;18.60;99.90
21672;DHT22;10997;52.242;8.168;2023-09-19T11:07:56;18.60;99.90
21672;DHT22;10997;52.242;8.168;2023-09-19T11:12:57;18.60;99.90
21672;DHT22;10997;52.242;8.168;2023-09-19T11:17:58;18.60;99.90
21672;DHT22;10997;52.242;8.168;2023-09-19T11:23:18;18.50;99.90
21672;DHT22;10997;52.242;8.168;2023-09-19T11:33:30;19.00;99.90
21672;DHT22;10997;52.242;8.168;2023-09-19T11:43:48;19.00;99.90
21672;DHT22;10997;52.242;8.168;2023-09-19T11:48:51;18.70;99.90
21672;DHT22;10997;52.242;8.168;2023-09-19T11:53:57;19.00;99.90
21672;DHT22;10997;52.242;8.168;2023-09-19T11:59:01;19.00;99.90
21672;DHT22;10997;52.242;8.168;2023-09-19T12:04:02;18.90;99.90
21672;DHT22;10997;52.242;8.168;2023-09-19T12:09:24;18.80;99.90
21672;DHT22;10997;52.242;8.168;2023-09-19T12:14:56;19.10;99.90
21672;DHT22;10997;52.242;8.168;2023-09-19T12:20:00;19.30;99.90
21672;DHT22;10997;52.242;8.168;2023-09-19T12:25:06;19.40;99.90
21672;DHT22;10997;52.242;8.168;2023-09-19T12:30:07;19.10;99.90
21672;DHT22;10997;52.242;8.168;2023-09-19T12:35:10;19.30;99.90
21672;DHT22;10997;52.242;8.168;2023-09-19T12:40:21;19.80;99.90
21672;DHT22;10997;52.242;8.168;2023-09-19T12:45:30;19.80;99.90
21672;DHT22;10997;52.242;8.168;2023-09-19T12:50:31;19.30;99.90
21672;DHT22;10997;52.242;8.168;2023-09-19T12:55:33;19.20;99.90
21672;DHT22;10997;52.242;8.168;2023-09-19T13:00:38;19.20;99.90
21672;DHT22;10997;52.242;8.168;2023-09-19T13:05:55;19.40;99.90
21672;DHT22;10997;52.242;8.168;2023-09-19T13:16:11;19.70;99.90
21672;DHT22;10997;52.242;8.168;2023-09-19T13:21:15;19.70;99.90
21672;DHT22;10997;52.242;8.168;2023-09-19T13:26:22;19.60;99.90
21672;DHT22;10997;52.242;8.168;2023-09-19T13:31:23;19.50;99.90
21672;DHT22;10997;52.242;8.168;2023-09-19T13:36:24;19.60;99.90
21672;DHT22;10997;52.242;8.168;2023-09-19T13:41:24;19.70;99.90
21672;DHT22;10997;52.242;8.168;2023-09-19T13:46:25;19.60;99.90
21672;DHT22;10997;52.242;8.168;2023-09-19T13:51:31;19.50;99.90
21672;DHT22;10997;52.242;8.168;2023-09-19T13:56:32;20.00;99.90
21672;DHT22;10997;52.242;8.168;2023-09-19T14:01:34;19.90;99.90
21672;DHT22;10997;52.242;8.168;2023-09-19T14:06:34;19.80;99.90
21672;DHT22;10997;52.242;8.168;2023-09-19T14:11:35;20.00;99.90
21672;DHT22;10997;52.242;8.168;2023-09-19T14:16:35;20.30;99.90
21672;DHT22;10997;52.242;8.168;2023-09-19T14:21:37;20.30;99.90
21672;DHT22;10997;52.242;8.168;2023-09-19T14:26:39;20.50;99.90
21672;DHT22;10997;52.242;8.168;2023-09-19T14:31:40;20.30;99.90
21672;DHT22;10997;52.242;8.168;2023-09-19T14:36:41;20.00;99.90
21672;DHT22;10997;52.242;8.168;2023-09-19T14:41:41;19.90;99.90
21672;DHT22;10997;52.242;8.168;2023-09-19T14:46:42;19.70;99.90
21672;DHT22;10997;52.242;8.168;2023-09-19T14:51:45;19.60;99.90
21672;DHT22;10997;52.242;8.168;2023-09-19T14:56:47;19.40;99.90
21672;DHT22;10997;52.242;8.168;2023-09-19T15:01:54;19.30;99.90
21672;DHT22;10997;52.242;8.168;2023-09-19T15:06:54;19.20;99.90
21672;DHT22;10997;52.242;8.168;2023-09-19T15:11:55;19.20;99.90
21672;DHT22;10997;52.242;8.168;2023-09-19T15:16:56;19.30;99.90
21672;DHT22;10997;52.242;8.168;2023-09-19T15:21:56;19.20;99.90
21672;DHT22;10997;52.242;8.168;2023-09-19T15:26:58;19.20;99.90
21672;DHT22;10997;52.242;8.168;2023-09-19T15:31:58;19.20;99.90
21672;DHT22;10997;52.242;8.168;2023-09-19T15:37:02;19.10;99.90
21672;DHT22;10997;52.242;8.168;2023-09-19T15:42:03;19.00;99.90
21672;DHT22;10997;52.242;8.168;2023-09-19T15:47:04;19.00;99.90
21672;DHT22;10997;52.242;8.168;2023-09-19T15:52:05;18.90;99.90
21672;DHT22;10997;52.242;8.168;2023-09-19T15:57:05;18.90;99.90
21672;DHT22;10997;52.242;8.168;2023-09-19T16:02:06;19.00;99.90
21672;DHT22;10997;52.242;8.168;2023-09-19T16:07:07;19.00;99.90
21672;DHT22;10997;52.242;8.168;2023-09-19T16:12:08;19.00;99.90
21672;DHT22;10997;52.242;8.168;2023-09-19T16:17:09;19.00;99.90
21672;DHT22;10997;52.242;8.168;2023-09-19T16:22:11;18.80;99.90
21672;DHT22;10997;52.242;8.168;2023-09-19T16:27:12;18.70;99.90
21672;DHT22;10997;52.242;8.168;2023-09-19T16:32:12;18.60;99.90
21672;DHT22;10997;52.242;8.168;2023-09-19T16:37:13;18.60;99.90
21672;DHT22;10997;52.242;8.168;2023-09-19T16:42:15;18.50;99.90
21672;DHT22;10997;52.242;8.168;2023-09-19T16:47:16;18.40;99.90
21672;DHT22;10997;52.242;8.168;2023-09-19T16:52:17;18.40;99.90
21672;DHT22;10997;52.242;8.168;2023-09-19T16:57:18;18.40;99.90
21672;DHT22;10997;52.242;8.168;2023-09-19T17:02:19;18.30;99.90
21672;DHT22;10997;52.242;8.168;2023-09-19T17:07:20;18.30;99.90
21672;DHT22;10997;52.242;8.168;2023-09-19T17:12:20;18.20;99.90
21672;DHT22;10997;52.242;8.168;2023-09-19T17:17:21;18.20;99.90
21672;DHT22;10997;52.242;8.168;2023-09-19T17:22:22;18.20;99.90
21672;DHT22;10997;52.242;8.168;2023-09-19T17:27:22;18.20;99.90
21672;DHT22;10997;52.242;8.168;2023-09-19T17:32:23;18.10;99.90
21672;DHT22;10997;52.242;8.168;2023-09-19T17:37:23;18.10;99.90
21672;DHT22;10997;52.242;8.168;2023-09-19T17:42:24;18.10;99.90
21672;DHT22;10997;52.242;8.168;2023-09-19T17:47:25;18.00;99.90
21672;DHT22;10997;52.242;8.168;2023-09-19T17:52:25;18.10;99.90
21672;DHT22;10997;52.242;8.168;2023-09-19T17:57:27;18.00;99.90
21672;DHT22;10997;52.242;8.168;2023-09-19T18:02:28;17.90;99.90
21672;DHT22;10997;52.242;8.168;2023-09-19T18:07:28;17.90;99.90
21672;DHT22;10997;52.242;8.168;2023-09-19T18:12:30;17.90;99.90
21672;DHT22;10997;52.242;8.168;2023-09-19T18:17:32;18.00;99.90
21672;DHT22;10997;52.242;8.168;2023-09-19T18:22:32;18.00;99.90
21672;DHT22;10997;52.242;8.168;2023-09-19T18:27:34;17.90;99.90
21672;DHT22;10997;52.242;8.168;2023-09-19T18:32:35;17.90;99.90
21672;DHT22;10997;52.242;8.168;2023-09-19T18:37:38;17.90;99.90
21672;DHT22;10997;52.242;8.168;2023-09-19T18:42:38;18.00;99.90
21672;DHT22;10997;52.242;8.168;2023-09-19T18:47:41;18.00;99.90
21672;DHT22;10997;52.242;8.168;2023-09-19T18:52:41;18.00;99.90
21672;DHT22;10997;52.242;8.168;2023-09-19T18:57:43;18.00;99.90
21672;DHT22;10997;52.242;8.168;2023-09-19T19:02:44;18.00;99.90
21672;DHT22;10997;52.242;8.168;2023-09-19T19:07:45;18.00;99.90
21672;DHT22;10997;52.242;8.168;2023-09-19T19:12:46;17.90;99.90
21672;DHT22;10997;52.242;8.168;2023-09-19T19:17:46;17.90;99.90
21672;DHT22;10997;52.242;8.168;2023-09-19T19:22:47;17.90;99.90
21672;DHT22;10997;52.242;8.168;2023-09-19T19:27:47;17.90;99.90
21672;DHT22;10997;52.242;8.168;2023-09-19T19:32:48;17.90;99.90
21672;DHT22;10997;52.242;8.168;2023-09-19T19:37:48;17.90;99.90
21672;DHT22;10997;52.242;8.168;2023-09-19T19:42:49;17.80;99.90
21672;DHT22;10997;52.242;8.168;2023-09-19T19:47:50;17.90;99.90
21672;DHT22;10997;52.242;8.168;2023-09-19T19:52:51;17.90;99.90
21672;DHT22;10997;52.242;8.168;2023-09-19T19:57:54;17.90;99.90
21672;DHT22;10997;52.242;8.168;2023-09-19T20:02:54;17.90;99.90
21672;DHT22;10997;52.242;8.168;2023-09-19T20:07:56;17.80;99.90
21672;DHT22;10997;52.242;8.168;2023-09-19T20:12:56;17.70;99.90
21672;DHT22;10997;52.242;8.168;2023-09-19T20:17:58;17.70;99.90
21672;DHT22;10997;52.242;8.168;2023-09-19T20:23:00;17.60;99.90
21672;DHT22;10997;52.242;8.168;2023-09-19T20:28:03;17.60;99.90
21672;DHT22;10997;52.242;8.168;2023-09-19T20:33:04;17.70;99.90
21672;DHT22;10997;52.242;8.168;2023-09-19T20:38:06;17.70;99.90
21672;DHT22;10997;52.242;8.168;2023-09-19T20:43:07;17.70;99.90
21672;DHT22;10997;52.242;8.168;2023-09-19T20:48:08;17.70;99.90
21672;DHT22;10997;52.242;8.168;2023-09-19T20:53:10;17.70;99.90
21672;DHT22;10997;52.242;8.168;2023-09-19T20:58:11;17.70;99.90
21672;DHT22;10997;52.242;8.168;2023-09-19T21:03:11;17.70;99.90
21672;DHT22;10997;52.242;8.168;2023-09-19T21:08:16;17.70;99.90
21672;DHT22;10997;52.242;8.168;2023-09-19T21:13:17;17.70;99.90
21672;DHT22;10997;52.242;8.168;2023-09-19T21:18:18;17.70;99.90
21672;DHT22;10997;52.242;8.168;2023-09-19T21:23:19;17.60;99.90
21672;DHT22;10997;52.242;8.168;2023-09-19T21:28:19;17.70;99.90
21672;DHT22;10997;52.242;8.168;2023-09-19T21:33:21;17.60;99.90
21672;DHT22;10997;52.242;8.168;2023-09-19T21:38:22;17.60;99.90
21672;DHT22;10997;52.242;8.168;2023-09-19T21:43:22;17.60;99.90
21672;DHT22;10997;52.242;8.168;2023-09-19T21:48:23;17.60;99.90
21672;DHT22;10997;52.242;8.168;2023-09-19T21:53:24;17.60;99.90
21672;DHT22;10997;52.242;8.168;2023-09-19T21:58:25;17.60;99.90
21672;DHT22;10997;52.242;8.168;2023-09-19T22:03:26;17.60;99.90
21672;DHT22;10997;52.242;8.168;2023-09-19T22:08:27;17.60;99.90
21672;DHT22;10997;52.242;8.168;2023-09-19T22:13:28;17.60;99.90
21672;DHT22;10997;52.242;8.168;2023-09-19T22:18:30;17.60;99.90
21672;DHT22;10997;52.242;8.168;2023-09-19T22:23:30;17.60;99.90
21672;DHT22;10997;52.242;8.168;2023-09-19T22:28:36;17.50;99.90
21672;DHT22;10997;52.242;8.168;2023-09-19T22:33:41;17.50;99.90
21672;DHT22;10997;52.242;8.168;2023-09-19T22:38:42;17.50;99.90
21672;DHT22;10997;52.242;8.168;2023-09-19T22:43:43;17.50;99.90
21672;DHT22;10997;52.242;8.168;2023-09-19T22:48:48;17.50;99.90
21672;DHT22;10997;52.242;8.168;2023-09-19T22:53:51;17.50;99.90
21672;DHT22;10997;52.242;8.168;2023-09-19T22:58:57;17.60;99.90
21672;DHT22;10997;52.242;8.168;2023-09-19T23:03:58;17.60;99.90
21672;DHT22;10997;52.242;8.168;2023-09-19T23:09:11;17.60;99.90
21672;DHT22;10997;52.242;8.168;2023-09-19T23:14:21;17.50;99.90
21672;DHT22;10997;52.242;8.168;2023-09-19T23:19:29;17.50;99.90
21672;DHT22;10997;52.242;8.168;2023-09-19T23:24:31;17.50;99.90
21672;DHT22;10997;52.242;8.168;2023-09-19T23:29:34;17.50;99.90
21672;DHT22;10997;52.242;8.168;2023-09-19T23:34:36;17.50;99.90
21672;DHT22;10997;52.242;8.168;2023-09-19T23:39:36;17.50;99.90
21672;DHT22;10997;52.242;8.168;2023-09-19T23:44:41;17.50;99.90
21672;DHT22;10997;52.242;8.168;2023-09-19T23:49:42;17.50;99.90
21672;DHT22;10997;52.242;8.168;2023-09-19T23:54:42;17.50;99.90
21672;DHT22;10997;52.242;8.168;2023-09-19T23:59:44;17.50;99.90
